createdAt,value
2023-04-08T00:05:27.720Z,41.5
2023-04-08T00:11:21.211Z,41.2
2023-04-08T00:17:13.887Z,46.7
2023-04-08T00:23:06.768Z,44.1
2023-04-08T00:28:58.552Z,39
2023-04-08T00:34:50.757Z,48.6
2023-04-08T00:40:42.338Z,42.8
2023-04-08T00:46:34.204Z,45.4
2023-04-08T00:52:26.570Z,44.3
2023-04-08T00:58:18.666Z,106.2
2023-04-08T01:04:11.151Z,41.6
2023-04-08T01:10:04.130Z,40.9
2023-04-08T01:15:57.686Z,40.7
2023-04-08T01:21:49.931Z,41.6
2023-04-08T01:27:42.702Z,42.5
2023-04-08T01:33:34.586Z,43.6
2023-04-08T01:39:28.104Z,41.6
2023-04-08T01:45:21.704Z,45.6
2023-04-08T01:51:14.681Z,45.6
2023-04-08T01:57:07.530Z,51.1
2023-04-08T02:03:00.399Z,49.6
2023-04-08T02:08:54.193Z,54.9
2023-04-08T02:14:47.348Z,50.1
2023-04-08T02:20:40.103Z,55.8
2023-04-08T02:26:33.169Z,51.1
2023-04-08T02:32:24.567Z,52.7
2023-04-08T02:38:17.491Z,51.8
2023-04-08T02:44:09.713Z,55.5
2023-04-08T02:50:02.759Z,52.8
2023-04-08T02:55:55.311Z,54.7
2023-04-08T03:01:48.152Z,53.7
2023-04-08T03:07:40.042Z,55.5
2023-04-08T03:13:32.218Z,56.3
2023-04-08T03:19:24.592Z,56
2023-04-08T03:25:16.428Z,61.5
2023-04-08T03:31:08.670Z,65.2
2023-04-08T03:37:00.787Z,67.7
2023-04-08T03:42:52.945Z,69.3
2023-04-08T03:48:45.200Z,81
2023-04-08T03:54:37.298Z,78
2023-04-08T04:00:29.160Z,82.2
2023-04-08T04:06:22.095Z,83.4
2023-04-08T04:12:15.204Z,76.4
2023-04-08T04:18:07.917Z,82.4
2023-04-08T11:51:56.024Z,54.5
2023-04-08T11:58:12.532Z,50.2
2023-04-08T12:04:09.132Z,53.8
2023-04-08T12:10:18.579Z,56.1
2023-04-08T12:16:51.660Z,57.5
2023-04-08T12:29:47.418Z,67.6
2023-04-08T12:35:56.184Z,65.2
2023-04-08T12:48:33.567Z,73.8
2023-04-08T12:54:44.232Z,74.7
2023-04-08T13:00:57.267Z,75.3
2023-04-08T13:07:11.430Z,76.6
2023-04-08T13:13:22.415Z,80.2
2023-04-08T13:19:44.592Z,62.8
2023-04-08T13:26:02.730Z,52.6
2023-04-08T13:37:53.219Z,57.3
2023-04-08T13:43:56.691Z,45.1
2023-04-08T13:50:09.216Z,47.5
2023-04-08T13:56:11.133Z,44.4
2023-04-08T14:02:27.217Z,47.9
2023-04-08T14:08:40.465Z,37.5
2023-04-08T14:21:12.638Z,38.6
2023-04-08T14:27:03.914Z,44.1
2023-04-08T14:33:04.332Z,43.5
2023-04-08T14:39:13.901Z,49.5
2023-04-08T14:45:21.759Z,45
2023-04-08T14:51:24.196Z,47.1
2023-04-08T14:57:31.426Z,50.8
2023-04-08T15:04:01.985Z,50.3
2023-04-08T15:09:58.009Z,45.8
2023-04-08T15:15:53.576Z,43.4
2023-04-08T15:22:01.468Z,44.3
2023-04-08T15:28:07.936Z,44
2023-04-08T15:34:08.290Z,45.8
2023-04-08T15:40:11.127Z,37.7
2023-04-08T15:46:21.275Z,32.5
2023-04-08T15:52:14.402Z,43.7
2023-04-08T15:58:09.907Z,40.2
2023-04-08T16:04:03.097Z,40.6
2023-04-08T16:23:14.856Z,40.8
2023-04-08T16:29:33.586Z,41.5
2023-04-08T16:35:33.345Z,40.3
2023-04-08T16:41:42.612Z,43.6
2023-04-08T16:54:34.469Z,38.4
2023-04-08T17:00:54.083Z,39.8
2023-04-08T17:06:55.957Z,70.5
2023-04-08T17:13:01.301Z,35.3
2023-04-08T17:18:57.387Z,29.7
2023-04-08T17:24:59.090Z,28.3
2023-04-08T17:37:09.546Z,24.5
2023-04-08T17:49:11.991Z,24.5
2023-04-08T17:55:02.854Z,34
2023-04-08T18:00:55.480Z,38.3
2023-04-08T18:07:22.829Z,35.2
2023-04-08T18:13:19.830Z,32.7
2023-04-08T18:25:15.614Z,24.8
2023-04-08T18:31:08.281Z,26.1
2023-04-08T18:37:03.128Z,24.6
2023-04-08T18:42:54.740Z,24.3
2023-04-08T18:48:46.578Z,24.6
2023-04-08T18:54:39.954Z,21.9
2023-04-08T19:00:32.706Z,21.8
2023-04-08T19:06:24.878Z,24.2
2023-04-08T19:12:17.357Z,25
2023-04-08T19:18:09.279Z,32.9
2023-04-08T19:24:00.775Z,27.7
2023-04-08T19:29:52.477Z,29.3
2023-04-08T19:35:44.865Z,68.3
2023-04-08T19:41:37.071Z,81.2
2023-04-08T19:47:28.821Z,54.2
2023-04-08T19:53:20.948Z,39.7
2023-04-08T19:59:14.969Z,34.6
2023-04-08T20:05:05.945Z,31.5
2023-04-08T20:10:58.220Z,36.3
2023-04-08T20:16:50.299Z,34.4
2023-04-08T20:22:41.656Z,30.2
2023-04-08T20:28:33.887Z,32.1
2023-04-08T20:34:26.172Z,36.3
2023-04-08T20:40:21.159Z,34
2023-04-08T20:46:13.535Z,35.2
2023-04-08T20:52:05.871Z,37.9
2023-04-08T20:57:59.845Z,38
2023-04-08T21:03:53.137Z,34.7
2023-04-08T21:09:45.652Z,35.6
2023-04-08T21:15:37.993Z,39.5
2023-04-08T21:21:29.728Z,36.8
2023-04-08T21:27:22.632Z,37.8
2023-04-08T21:33:14.587Z,39.6
2023-04-08T21:39:07.606Z,43.8
2023-04-08T21:44:59.763Z,44.9
2023-04-08T21:50:54.037Z,46.4
2023-04-08T21:56:45.800Z,44.7
2023-04-08T22:02:39.019Z,41
2023-04-08T22:08:30.670Z,42.7
2023-04-08T22:14:22.681Z,43
2023-04-08T22:20:14.667Z,45.5
2023-04-08T22:26:06.711Z,46
2023-04-08T22:31:59.803Z,41.2
2023-04-08T22:37:52.101Z,44.7
2023-04-08T22:43:43.843Z,46.7
2023-04-08T22:49:35.645Z,45.3
2023-04-08T22:55:27.098Z,47.2
2023-04-08T23:01:19.242Z,48.1
2023-04-08T23:07:11.809Z,44.3
2023-04-08T23:13:03.834Z,39.2
2023-04-08T23:18:57.149Z,42.9
2023-04-08T23:24:48.377Z,47.7
2023-04-08T23:30:40.708Z,48
2023-04-08T23:36:32.228Z,41
2023-04-08T23:42:24.448Z,47.8
2023-04-08T23:48:15.777Z,47
2023-04-08T23:54:13.149Z,49.3
